Time;durP1;ratioP1;P1;durP2;ratioP2;P2;SDS_P1;SDS_P2;PMS_P1;PMS_P2;Temp;Humidity;BMP_temperature;BMP_pressure;BME280_temperature;BME280_humidity;BME280_pressure;Samples;Min_cycle;Max_cycle;Signal;HPM_P1;HPM_P2
2022/05/09 01:12:43;;;;;;;5.73;5.30;;;;;;;;;;6122268;23;20491;-92
2022/05/09 01:15:49;;;;;;;5.40;5.00;;;;;;;;;;6122859;23;20745;-92
2022/05/09 01:18:55;;;;;;;6.27;5.77;;;;;;;;;;6120949;23;20447;-91
2022/05/09 01:22:02;;;;;;;7.40;5.40;;;;;;;;;;6122822;23;20384;-93
2022/05/09 01:25:07;;;;;;;7.93;6.10;;;;;;;;;;6116289;23;20385;-92
2022/05/09 01:28:16;;;;;;;6.63;6.17;;;;;;;;;;6119873;23;20380;-92
2022/05/09 01:31:22;;;;;;;6.23;5.70;;;;;;;;;;6123297;23;20442;-92
2022/05/09 01:34:30;;;;;;;6.13;5.60;;;;;;;;;;6120323;23;20860;-93
2022/05/09 01:37:34;;;;;;;5.93;5.43;;;;;;;;;;6124287;23;20738;-92
2022/05/09 01:40:42;;;;;;;6.13;5.63;;;;;;;;;;6121664;23;20388;-92
2022/05/09 01:43:57;;;;;;;7.43;6.33;;;;;;;;;;6121920;23;20416;-93
2022/05/09 01:50:21;;;;;;;7.03;5.73;;;;;;;;;;6121332;23;20914;-92
2022/05/09 01:53:20;;;;;;;5.87;5.47;;;;;;;;;;6125941;23;20397;-92
2022/05/09 01:56:26;;;;;;;5.80;5.27;;;;;;;;;;6121403;23;20419;-93
2022/05/09 01:59:34;;;;;;;10.50;5.73;;;;;;;;;;6120694;23;20472;-92
2022/05/09 02:02:40;;;;;;;6.83;6.43;;;;;;;;;;6123835;23;20476;-92
2022/05/09 02:05:43;;;;;;;5.50;5.00;;;;;;;;;;6123138;23;20480;-92
2022/05/09 02:08:49;;;;;;;7.20;6.17;;;;;;;;;;6119531;23;20401;-91
2022/05/09 02:11:55;;;;;;;6.03;5.67;;;;;;;;;;6120577;23;20436;-92
2022/05/09 02:15:01;;;;;;;7.13;5.90;;;;;;;;;;6274607;22;20501;-92
2022/05/09 02:18:07;;;;;;;6.23;5.77;;;;;;;;;;6305068;22;20379;-92
2022/05/09 02:21:13;;;;;;;9.67;6.57;;;;;;;;;;6307044;22;20395;-92
2022/05/09 02:24:18;;;;;;;6.67;6.17;;;;;;;;;;6299131;22;20413;-92
2022/05/09 02:27:24;;;;;;;5.83;5.43;;;;;;;;;;6306215;22;20387;-92
2022/05/09 02:30:31;;;;;;;6.50;5.47;;;;;;;;;;6306727;22;20380;-93
2022/05/09 02:33:36;;;;;;;8.53;5.13;;;;;;;;;;6304804;22;20395;-91
2022/05/09 02:36:42;;;;;;;7.90;6.70;;;;;;;;;;6306216;22;20618;-94
2022/05/09 02:39:48;;;;;;;5.63;5.30;;;;;;;;;;6304559;22;20390;-92
2022/05/09 02:42:54;;;;;;;5.90;5.50;;;;;;;;;;6304229;22;20384;-92
2022/05/09 02:46:03;;;;;;;8.77;5.93;;;;;;;;;;6306515;22;20475;-92
2022/05/09 02:49:06;;;;;;;6.53;5.93;;;;;;;;;;6305342;22;20426;-91
2022/05/09 02:52:12;;;;;;;6.53;5.90;;;;;;;;;;6325178;22;20451;-92
2022/05/09 02:55:17;;;;;;;7.27;6.77;;;;;;;;;;6324327;22;20481;-92
2022/05/09 02:58:24;;;;;;;6.93;6.30;;;;;;;;;;6311429;22;20419;-92
2022/05/09 03:01:30;;;;;;;9.20;6.40;;;;;;;;;;6311986;22;20401;-90
2022/05/09 03:04:39;;;;;;;11.33;6.77;;;;;;;;;;6308710;22;20738;-94
2022/05/09 03:07:45;;;;;;;7.33;6.67;;;;;;;;;;6306108;22;20457;-91
2022/05/09 03:10:51;;;;;;;7.40;6.70;;;;;;;;;;6306720;22;20380;-93
2022/05/09 03:13:59;;;;;;;7.23;6.60;;;;;;;;;;6304901;22;20415;-91
2022/05/09 03:17:03;;;;;;;10.33;6.73;;;;;;;;;;6314751;22;20384;-91
2022/05/09 03:20:18;;;;;;;13.53;6.97;;;;;;;;;;6320369;22;20379;-92
2022/05/09 03:23:24;;;;;;;6.73;6.30;;;;;;;;;;6318549;22;20391;-93
2022/05/09 03:26:30;;;;;;;6.93;6.40;;;;;;;;;;6323000;22;20379;-91
2022/05/09 03:29:36;;;;;;;8.23;7.57;;;;;;;;;;6322404;22;20383;-91
2022/05/09 03:32:44;;;;;;;7.30;6.60;;;;;;;;;;6317992;22;20435;-92
2022/05/09 03:35:50;;;;;;;7.03;6.63;;;;;;;;;;6325845;22;20388;-92
2022/05/09 03:38:56;;;;;;;7.43;5.70;;;;;;;;;;6321050;22;20376;-92
2022/05/09 03:42:00;;;;;;;10.83;7.43;;;;;;;;;;6310160;22;20684;-92
2022/05/09 03:45:09;;;;;;;6.90;6.50;;;;;;;;;;6307115;22;20384;-91
2022/05/09 03:48:12;;;;;;;7.03;6.63;;;;;;;;;;6307178;22;21082;-91
2022/05/09 03:51:21;;;;;;;8.80;6.47;;;;;;;;;;6309738;22;20998;-93
2022/05/09 03:54:30;;;;;;;8.07;7.37;;;;;;;;;;6308535;22;20577;-93
2022/05/09 03:57:33;;;;;;;7.33;6.83;;;;;;;;;;6306361;22;20794;-92
2022/05/09 04:00:39;;;;;;;8.13;7.40;;;;;;;;;;6307907;22;20875;-93
2022/05/09 04:03:46;;;;;;;6.90;6.20;;;;;;;;;;6308204;22;20376;-92
2022/05/09 04:06:53;;;;;;;6.93;6.60;;;;;;;;;;6311125;22;20436;-92
2022/05/09 04:09:57;;;;;;;7.30;6.70;;;;;;;;;;6312232;22;20519;-88
2022/05/09 04:13:04;;;;;;;8.43;7.50;;;;;;;;;;6311612;22;20469;-94
2022/05/09 04:19:22;;;;;;;7.47;7.07;;;;;;;;;;6308278;22;20402;-94
2022/05/09 04:22:21;;;;;;;7.70;7.00;;;;;;;;;;6307010;22;20384;-92
2022/05/09 04:25:32;;;;;;;7.83;7.10;;;;;;;;;;6299878;22;20372;-92
2022/05/09 04:28:31;;;;;;;7.50;6.80;;;;;;;;;;6306492;22;20402;-92
2022/05/09 04:31:51;;;;;;;8.80;8.00;;;;;;;;;;6310735;22;20527;-91
2022/05/09 04:34:54;;;;;;;7.40;6.70;;;;;;;;;;6307458;22;20423;-92
2022/05/09 04:38:02;;;;;;;7.10;6.50;;;;;;;;;;6307315;22;20466;-92
2022/05/09 04:41:06;;;;;;;14.03;6.67;;;;;;;;;;6307232;22;20407;-92
2022/05/09 04:44:15;;;;;;;7.87;7.30;;;;;;;;;;6309565;22;20595;-92
2022/05/09 04:47:20;;;;;;;7.83;6.83;;;;;;;;;;6313922;22;20415;-92
2022/05/09 04:50:29;;;;;;;7.87;7.17;;;;;;;;;;6307355;22;20434;-93
2022/05/09 04:53:32;;;;;;;7.60;6.90;;;;;;;;;;6307468;22;20411;-92
2022/05/09 04:59:22;;;;;;;7.67;6.93;;;;;;;;;;6156734;22;20974;-92
2022/05/09 05:02:25;;;;;;;7.07;6.47;;;;;;;;;;6147788;23;20392;-93
2022/05/09 05:05:31;;;;;;;7.67;7.00;;;;;;;;;;6152981;23;20469;-92
2022/05/09 05:08:53;;;;;;;;;;;;;;;;;;;;;
2022/05/09 05:11:49;;;;;;;7.73;6.80;;;;;;;;;;6153258;23;20439;-92
2022/05/09 05:14:52;;;;;;;8.17;7.03;;;;;;;;;;6148904;23;20384;-91
2022/05/09 05:18:09;;;;;;;7.43;6.83;;;;;;;;;;6150596;23;20383;-94
2022/05/09 05:21:08;;;;;;;7.97;7.03;;;;;;;;;;6155912;22;20396;-92
2022/05/09 05:24:13;;;;;;;10.20;8.57;;;;;;;;;;6148104;22;21133;-92
2022/05/09 05:27:22;;;;;;;7.73;7.03;;;;;;;;;;6152097;23;20474;-92
2022/05/09 05:30:28;;;;;;;9.50;6.57;;;;;;;;;;6155312;22;20701;-92
2022/05/09 05:33:40;;;;;;;9.50;7.30;;;;;;;;;;6155403;22;20396;-92
2022/05/09 05:36:59;;;;;;;6.80;6.20;;;;;;;;;;6167415;23;20411;-92
2022/05/09 05:40:05;;;;;;;6.90;6.33;;;;;;;;;;6152318;22;20395;-94
2022/05/09 05:43:13;;;;;;;7.17;6.50;;;;;;;;;;6153228;22;20485;-90
2022/05/09 05:46:17;;;;;;;11.33;10.27;;;;;;;;;;6154210;23;20380;-89
2022/05/09 05:49:23;;;;;;;7.20;6.73;;;;;;;;;;6157043;23;20383;-90
2022/05/09 05:52:29;;;;;;;17.77;8.47;;;;;;;;;;6159613;23;20444;-90
2022/05/09 05:55:34;;;;;;;7.57;6.00;;;;;;;;;;6164772;22;20452;-92
2022/05/09 05:58:40;;;;;;;11.07;6.63;;;;;;;;;;6165567;22;20485;-93
2022/05/09 06:01:47;;;;;;;7.53;6.93;;;;;;;;;;6164654;23;20403;-93
2022/05/09 06:05:04;;;;;;;6.50;6.10;;;;;;;;;;6162584;23;20455;-93
2022/05/09 06:08:01;;;;;;;9.90;6.77;;;;;;;;;;6155179;23;20407;-93
2022/05/09 06:11:07;;;;;;;6.67;6.00;;;;;;;;;;6160056;22;20389;-93
2022/05/09 06:14:25;;;;;;;6.47;5.90;;;;;;;;;;6155270;22;20380;-94
2022/05/09 06:17:31;;;;;;;6.47;5.57;;;;;;;;;;6135410;23;20536;-90
2022/05/09 06:20:59;;;;;;;7.23;6.53;;;;;;;;;;6153069;23;20395;-91
2022/05/09 06:27:21;;;;;;;8.27;6.80;;;;;;;;;;6092947;23;20401;-94
2022/05/09 06:30:27;;;;;;;6.63;5.93;;;;;;;;;;6091939;23;20461;-93
2022/05/09 06:39:31;;;;;;;7.13;6.60;;;;;;;;;;6309939;22;20457;-94
2022/05/09 06:42:37;;;;;;;7.10;6.50;;;;;;;;;;6186025;23;20478;-93
2022/05/09 07:09:44;;;;;;;6.00;5.40;;;;;;;;;;6205112;23;20437;-93
2022/05/09 07:12:53;;;;;;;5.20;4.80;;;;;;;;;;6299054;22;20447;-94
2022/05/09 07:16:08;;;;;;;5.70;5.20;;;;;;;;;;6270141;22;20743;-89
2022/05/09 07:19:13;;;;;;;6.00;5.40;;;;;;;;;;6186820;22;20390;-88
2022/05/09 07:22:17;;;;;;;6.20;5.60;;;;;;;;;;6299211;22;20437;-87
2022/05/09 07:25:23;;;;;;;5.60;5.30;;;;;;;;;;6299866;22;20391;-87
2022/05/09 07:28:30;;;;;;;6.17;5.03;;;;;;;;;;6299627;22;20412;-86
2022/05/09 07:31:39;;;;;;;5.50;5.20;;;;;;;;;;6296643;22;20419;-87
2022/05/09 07:34:48;;;;;;;5.87;5.57;;;;;;;;;;6300455;22;20391;-87
2022/05/09 07:37:58;;;;;;;6.10;5.07;;;;;;;;;;6300905;22;20379;-87
2022/05/09 07:40:56;;;;;;;5.23;4.90;;;;;;;;;;6291386;22;20398;-88
2022/05/09 07:44:02;;;;;;;5.33;4.83;;;;;;;;;;6297567;22;20379;-87
2022/05/09 07:47:19;;;;;;;5.33;4.93;;;;;;;;;;6296996;22;20859;-88
2022/05/09 07:50:30;;;;;;;5.33;5.00;;;;;;;;;;6300049;22;20403;-90
2022/05/09 07:53:49;;;;;;;5.13;4.67;;;;;;;;;;6288020;22;20417;-88
2022/05/09 07:56:58;;;;;;;5.23;4.80;;;;;;;;;;6299858;22;20387;-88
2022/05/09 08:03:16;;;;;;;5.00;4.80;;;;;;;;;;6303890;22;20431;-89
2022/05/09 08:06:22;;;;;;;7.20;5.30;;;;;;;;;;6306846;22;20442;-88
2022/05/09 08:09:39;;;;;;;5.03;4.60;;;;;;;;;;6272353;22;20384;-87
2022/05/09 08:12:47;;;;;;;5.83;3.90;;;;;;;;;;6271485;22;20428;-88
2022/05/09 08:15:44;;;;;;;7.37;6.67;;;;;;;;;;6264644;22;20496;-90
2022/05/09 08:18:47;;;;;;;5.43;5.20;;;;;;;;;;6269602;22;20380;-90
2022/05/09 08:21:58;;;;;;;4.47;3.83;;;;;;;;;;6270375;22;20486;-90
2022/05/09 08:25:01;;;;;;;7.77;4.47;;;;;;;;;;6270299;22;20384;-89
2022/05/09 08:28:26;;;;;;;5.37;4.87;;;;;;;;;;6248228;22;20403;-90
2022/05/09 08:31:18;;;;;;;5.63;4.03;;;;;;;;;;6267698;22;20396;-89
2022/05/09 08:34:23;;;;;;;4.50;4.17;;;;;;;;;;6270634;22;20380;-88
2022/05/09 08:37:33;;;;;;;4.70;4.50;;;;;;;;;;6270639;22;20472;-89
2022/05/09 08:40:47;;;;;;;4.33;4.13;;;;;;;;;;6269264;22;20902;-90
2022/05/09 08:43:30;;;;;;;6.10;4.67;;;;;;;;;;6265492;22;20408;-88
2022/05/09 08:46:38;;;;;;;4.30;4.10;;;;;;;;;;6268168;22;20493;-88
2022/05/09 08:49:45;;;;;;;4.87;4.70;;;;;;;;;;6266337;22;20453;-88
2022/05/09 08:52:53;;;;;;;5.30;4.90;;;;;;;;;;6266138;22;20526;-88
2022/05/09 08:56:02;;;;;;;4.77;4.43;;;;;;;;;;6267427;22;20381;-89
2022/05/09 08:59:08;;;;;;;5.83;5.40;;;;;;;;;;6268893;22;20381;-90
2022/05/09 09:02:14;;;;;;;5.77;4.83;;;;;;;;;;6270660;22;20428;-88
2022/05/09 09:05:17;;;;;;;5.50;5.20;;;;;;;;;;6268432;22;20396;-88
2022/05/09 09:08:09;;;;;;;4.63;4.43;;;;;;;;;;6269106;22;20506;-87
2022/05/09 09:11:28;;;;;;;6.70;6.10;;;;;;;;;;6270501;22;20421;-87
2022/05/09 09:14:33;;;;;;;5.83;5.53;;;;;;;;;;6269304;22;20463;-87
2022/05/09 09:17:41;;;;;;;5.60;5.27;;;;;;;;;;6270397;22;20383;-87
2022/05/09 09:20:44;;;;;;;7.50;5.63;;;;;;;;;;6270370;22;20383;-87
2022/05/09 09:23:50;;;;;;;5.93;5.43;;;;;;;;;;6269651;22;20392;-87
2022/05/09 09:26:56;;;;;;;5.90;5.33;;;;;;;;;;6271921;22;20408;-88
2022/05/09 09:30:02;;;;;;;5.30;5.00;;;;;;;;;;6269531;22;20384;-87
2022/05/09 09:33:14;;;;;;;5.20;5.10;;;;;;;;;;6269912;22;20392;-87
2022/05/09 09:36:23;;;;;;;5.60;5.37;;;;;;;;;;6273551;22;20692;-88
2022/05/09 09:39:29;;;;;;;6.00;5.80;;;;;;;;;;6271099;22;20748;-89
2022/05/09 09:42:38;;;;;;;5.40;5.13;;;;;;;;;;6265493;22;20458;-89
2022/05/09 09:45:32;;;;;;;5.10;4.80;;;;;;;;;;6276796;22;20387;-90
2022/05/09 09:48:30;;;;;;;5.53;5.33;;;;;;;;;;6295183;22;20395;-90
2022/05/09 09:51:43;;;;;;;5.30;5.10;;;;;;;;;;6283671;22;20692;-88
2022/05/09 09:55:08;;;;;;;6.00;5.70;;;;;;;;;;6270439;22;20442;-90
2022/05/09 10:04:11;;;;;;;6.10;5.70;;;;;;;;;;6251978;22;20449;-91
2022/05/09 10:10:05;;;;;;;5.67;5.30;;;;;;;;;;6186034;22;20935;-87
2022/05/09 10:13:13;;;;;;;5.57;5.20;;;;;;;;;;6303530;22;20384;-88
2022/05/09 10:16:33;;;;;;;;;;;;;;;;;;;;;
2022/05/09 10:19:29;;;;;;;6.00;5.57;;;;;;;;;;6277660;22;20418;-89
2022/05/09 10:25:43;;;;;;;5.83;5.53;;;;;;;;;;6308723;22;20398;-89
2022/05/09 10:28:54;;;;;;;5.37;5.13;;;;;;;;;;6307553;22;20487;-88
2022/05/09 10:31:59;;;;;;;5.53;5.43;;;;;;;;;;6307255;22;20376;-88
2022/05/09 10:35:08;;;;;;;5.97;5.73;;;;;;;;;;6305976;22;20384;-88
2022/05/09 10:38:20;;;;;;;6.03;5.60;;;;;;;;;;6310581;22;20384;-87
2022/05/09 10:41:26;;;;;;;6.00;5.60;;;;;;;;;;6296811;22;20787;-88
2022/05/09 10:44:32;;;;;;;5.80;5.40;;;;;;;;;;6303527;22;20456;-90
2022/05/09 10:47:27;;;;;;;6.13;5.53;;;;;;;;;;6305854;22;20378;-88
2022/05/09 10:50:33;;;;;;;5.67;5.27;;;;;;;;;;6308753;22;20465;-87
2022/05/09 10:53:38;;;;;;;6.73;6.33;;;;;;;;;;6309346;22;20380;-88
2022/05/09 10:56:51;;;;;;;5.17;5.03;;;;;;;;;;6310222;22;20390;-88
2022/05/09 10:59:57;;;;;;;6.33;6.03;;;;;;;;;;6309010;22;20412;-86
2022/05/09 11:03:05;;;;;;;5.97;5.63;;;;;;;;;;6319578;22;21092;-87
2022/05/09 11:06:12;;;;;;;5.63;5.33;;;;;;;;;;6316138;22;20451;-89
2022/05/09 11:09:19;;;;;;;4.93;4.73;;;;;;;;;;6318258;22;20403;-89
2022/05/09 11:12:23;;;;;;;5.00;4.80;;;;;;;;;;6135419;23;20450;-88
2022/05/09 11:15:35;;;;;;;5.17;4.97;;;;;;;;;;6128833;23;20412;-88
2022/05/09 11:18:56;;;;;;;8.00;5.87;;;;;;;;;;6120458;23;20385;-88
2022/05/09 11:21:47;;;;;;;5.53;5.30;;;;;;;;;;6121018;23;20511;-88
2022/05/09 11:24:56;;;;;;;4.90;4.73;;;;;;;;;;6117997;23;20385;-88
2022/05/09 11:27:56;;;;;;;5.90;5.60;;;;;;;;;;6127552;23;20459;-88
2022/05/09 11:31:16;;;;;;;;;;;;;;;;;;;;;
2022/05/09 11:34:18;;;;;;;5.83;5.50;;;;;;;;;;6118842;22;20764;-89
2022/05/09 11:37:22;;;;;;;5.67;5.43;;;;;;;;;;6118587;23;20393;-89
2022/05/09 11:40:27;;;;;;;6.33;5.03;;;;;;;;;;6119071;23;20403;-89
2022/05/09 11:43:45;;;;;;;4.67;4.47;;;;;;;;;;6119875;23;20742;-87
2022/05/09 11:46:31;;;;;;;4.40;4.30;;;;;;;;;;6120201;23;20397;-88
2022/05/09 11:49:40;;;;;;;5.83;5.20;;;;;;;;;;6119529;23;20406;-90
2022/05/09 11:52:46;;;;;;;6.30;5.97;;;;;;;;;;6129215;23;20457;-88
2022/05/09 11:56:05;;;;;;;;;;;;;;;;;;;;;
2022/05/09 12:50:12;;;;;;;4.87;4.70;;;;;;;;;;6184859;23;20410;-88
2022/05/09 12:58:30;;;;;;;4.50;4.37;;;;;;;;;;6227502;22;20449;-89
2022/05/09 13:01:45;;;;;;;5.60;5.30;;;;;;;;;;6211897;23;20414;-89
2022/05/09 13:08:27;;;;;;;5.20;4.80;;;;;;;;;;6150263;23;20400;-90
2022/05/09 13:11:33;;;;;;;4.70;4.60;;;;;;;;;;6266189;22;20391;-87
2022/05/09 13:14:39;;;;;;;4.80;4.60;;;;;;;;;;6316629;22;20402;-91
2022/05/09 13:17:56;;;;;;;5.00;4.80;;;;;;;;;;6319497;22;20383;-90
2022/05/09 13:21:00;;;;;;;5.53;5.10;;;;;;;;;;6322585;22;20418;-92
2022/05/09 13:24:08;;;;;;;6.50;5.40;;;;;;;;;;6325014;22;20418;-91
2022/05/09 13:27:14;;;;;;;4.37;4.27;;;;;;;;;;6322322;22;20412;-92
2022/05/09 13:30:17;;;;;;;4.60;4.40;;;;;;;;;;6318902;22;20382;-94
2022/05/09 13:33:26;;;;;;;5.20;5.00;;;;;;;;;;6320545;22;20422;-95
2022/05/09 13:36:37;;;;;;;4.23;4.13;;;;;;;;;;6318658;22;20422;-93
2022/05/09 13:39:48;;;;;;;5.03;4.70;;;;;;;;;;6321335;22;20491;-94
2022/05/09 13:43:13;;;;;;;4.73;4.50;;;;;;;;;;6316815;22;20494;-95
2022/05/09 13:45:58;;;;;;;6.97;6.67;;;;;;;;;;6309658;22;20387;-94
2022/05/09 13:49:07;;;;;;;5.80;5.40;;;;;;;;;;6314637;22;20376;-92
2022/05/09 14:10:23;;;;;;;5.70;5.20;;;;;;;;;;6313019;22;20463;-93
2022/05/09 14:13:45;;;;;;;7.03;6.50;;;;;;;;;;6307753;22;20785;-91
2022/05/09 14:16:56;;;;;;;4.77;4.67;;;;;;;;;;6186813;23;20427;-95
2022/05/09 14:20:02;;;;;;;4.90;4.80;;;;;;;;;;6259832;22;20375;-93
2022/05/09 14:23:08;;;;;;;4.70;4.50;;;;;;;;;;6301803;22;20442;-94
2022/05/09 14:29:47;;;;;;;;;;;;;;;;;;;;;
2022/05/09 14:32:49;;;;;;;5.80;5.70;;;;;;;;;;6317590;22;20429;-91
2022/05/09 14:43:33;;;;;;;6.47;6.27;;;;;;;;;;6276121;22;20446;-91
2022/05/09 14:46:38;;;;;;;6.90;6.40;;;;;;;;;;6295032;22;20702;-91
2022/05/09 14:50:01;;;;;;;;;;;;;;;;;;;;;
2022/05/09 14:52:52;;;;;;;;;;;;;;;;;;;;;
2022/05/09 14:58:35;;;;;;;7.73;7.13;;;;;;;;;;6316386;22;20379;-89
2022/05/09 15:01:55;;;;;;;7.17;6.77;;;;;;;;;;6303916;22;20428;-93
2022/05/09 15:05:06;;;;;;;7.00;6.70;;;;;;;;;;6161063;23;20380;-93
2022/05/09 15:08:27;;;;;;;6.80;6.50;;;;;;;;;;6313769;22;20404;-95
2022/05/09 15:30:26;;;;;;;7.57;7.17;;;;;;;;;;6163981;22;20458;-90
2022/05/09 15:33:32;;;;;;;7.73;6.23;;;;;;;;;;6158815;23;20418;-93
2022/05/09 15:40:09;;;;;;;6.90;6.30;;;;;;;;;;6236883;22;20439;-89
2022/05/09 15:45:55;;;;;;;5.90;5.77;;;;;;;;;;6164909;23;20440;-92
2022/05/09 15:51:51;;;;;;;6.67;6.47;;;;;;;;;;6223886;22;20518;-93
2022/05/09 15:55:09;;;;;;;6.93;6.53;;;;;;;;;;6256721;22;20448;-92
2022/05/09 16:12:54;;;;;;;6.33;6.13;;;;;;;;;;6299851;22;20455;-91
2022/05/09 16:18:51;;;;;;;7.50;7.13;;;;;;;;;;6223632;22;20459;-94
2022/05/09 16:24:31;;;;;;;8.40;7.70;;;;;;;;;;6108101;23;20449;-95
2022/05/09 16:32:56;;;;;;;7.90;7.13;;;;;;;;;;6117469;22;20462;-90
2022/05/09 16:48:01;;;;;;;;;;;;;;;;;;;;;
2022/05/09 17:06:42;;;;;;;11.73;10.83;;;;;;;;;;6168115;23;20450;-95
2022/05/09 17:09:48;;;;;;;13.60;12.70;;;;;;;;;;6144791;23;20484;-91
2022/05/09 17:25:54;;;;;;;13.87;12.40;;;;;;;;;;6296973;22;20431;-96
2022/05/09 17:53:34;;;;;;;9.07;8.30;;;;;;;;;;6095339;23;20456;-94
2022/05/09 18:00:01;;;;;;;8.97;8.43;;;;;;;;;;6112249;23;20376;-95
2022/05/09 18:08:50;;;;;;;;;;;;;;;;;;;;;
2022/05/09 18:11:51;;;;;;;7.87;7.40;;;;;;;;;;6101713;23;20461;-94
2022/05/09 18:15:04;;;;;;;9.50;8.73;;;;;;;;;;6101581;23;20894;-95
2022/05/09 18:17:57;;;;;;;8.77;7.97;;;;;;;;;;6101965;23;20399;-96
2022/05/09 18:31:15;;;;;;;11.47;8.53;;;;;;;;;;6123975;22;20469;-94
2022/05/09 18:45:26;;;;;;;11.13;10.23;;;;;;;;;;6150162;22;20464;-90
2022/05/09 20:53:03;;;;;;;13.30;12.20;;;;;;;;;;6145893;23;20451;-93
2022/05/09 20:59:43;;;;;;;13.50;12.70;;;;;;;;;;6163454;23;20931;-90
2022/05/09 21:03:03;;;;;;;;;;;;;;;;;;;;;
2022/05/09 21:06:23;;;;;;;13.20;12.10;;;;;;;;;;6047174;23;20391;-91
2022/05/09 21:09:17;;;;;;;12.77;11.57;;;;;;;;;;6163617;23;20403;-92
2022/05/09 21:43:33;;;;;;;14.23;13.30;;;;;;;;;;6169430;23;20466;-92
2022/05/09 21:46:45;;;;;;;14.77;13.97;;;;;;;;;;6117633;23;20390;-92
2022/05/09 21:49:45;;;;;;;12.50;11.77;;;;;;;;;;6115331;23;20400;-92
